sensor_id;sensor_type;location;lat;lon;timestamp;temperature;humidity
5286;DHT22;2665;53.112;7.358;2024-02-21T00:01:46;9.10;99.90
5286;DHT22;2665;53.112;7.358;2024-02-21T00:04:12;9.10;99.90
5286;DHT22;2665;53.112;7.358;2024-02-21T00:06:37;9.20;99.90
5286;DHT22;2665;53.112;7.358;2024-02-21T00:09:03;9.20;99.90
5286;DHT22;2665;53.112;7.358;2024-02-21T00:11:29;9.20;99.90
5286;DHT22;2665;53.112;7.358;2024-02-21T00:13:55;9.20;99.90
5286;DHT22;2665;53.112;7.358;2024-02-21T00:16:20;9.20;99.90
5286;DHT22;2665;53.112;7.358;2024-02-21T00:18:46;9.20;99.90
5286;DHT22;2665;53.112;7.358;2024-02-21T00:21:12;9.20;99.90
5286;DHT22;2665;53.112;7.358;2024-02-21T00:23:43;9.20;99.90
5286;DHT22;2665;53.112;7.358;2024-02-21T00:26:11;9.20;99.90
5286;DHT22;2665;53.112;7.358;2024-02-21T00:28:37;9.20;99.90
5286;DHT22;2665;53.112;7.358;2024-02-21T00:31:03;9.20;99.90
5286;DHT22;2665;53.112;7.358;2024-02-21T00:33:29;9.20;99.90
5286;DHT22;2665;53.112;7.358;2024-02-21T00:35:54;9.20;99.90
5286;DHT22;2665;53.112;7.358;2024-02-21T00:38:20;9.20;99.90
5286;DHT22;2665;53.112;7.358;2024-02-21T00:40:46;9.20;99.90
5286;DHT22;2665;53.112;7.358;2024-02-21T00:43:11;9.20;99.90
5286;DHT22;2665;53.112;7.358;2024-02-21T00:45:37;9.20;99.90
5286;DHT22;2665;53.112;7.358;2024-02-21T00:48:03;9.20;99.90
5286;DHT22;2665;53.112;7.358;2024-02-21T00:50:29;9.20;99.90
5286;DHT22;2665;53.112;7.358;2024-02-21T00:52:55;9.20;99.90
5286;DHT22;2665;53.112;7.358;2024-02-21T00:55:21;9.10;98.00
5286;DHT22;2665;53.112;7.358;2024-02-21T00:57:46;9.00;99.90
5286;DHT22;2665;53.112;7.358;2024-02-21T01:00:12;8.90;99.90
5286;DHT22;2665;53.112;7.358;2024-02-21T01:02:38;8.90;99.90
5286;DHT22;2665;53.112;7.358;2024-02-21T01:05:04;8.90;99.90
5286;DHT22;2665;53.112;7.358;2024-02-21T01:07:30;8.80;99.90
5286;DHT22;2665;53.112;7.358;2024-02-21T01:09:55;8.90;99.90
5286;DHT22;2665;53.112;7.358;2024-02-21T01:12:21;8.90;99.90
5286;DHT22;2665;53.112;7.358;2024-02-21T01:14:47;8.90;99.90
5286;DHT22;2665;53.112;7.358;2024-02-21T01:17:13;8.90;99.90
5286;DHT22;2665;53.112;7.358;2024-02-21T01:19:38;8.90;99.90
5286;DHT22;2665;53.112;7.358;2024-02-21T01:22:04;8.90;99.90
5286;DHT22;2665;53.112;7.358;2024-02-21T01:24:30;8.90;99.90
5286;DHT22;2665;53.112;7.358;2024-02-21T01:26:55;8.90;99.90
5286;DHT22;2665;53.112;7.358;2024-02-21T01:29:21;8.90;99.90
5286;DHT22;2665;53.112;7.358;2024-02-21T01:31:47;8.90;99.90
5286;DHT22;2665;53.112;7.358;2024-02-21T01:34:13;8.90;99.90
5286;DHT22;2665;53.112;7.358;2024-02-21T01:36:38;8.90;99.90
5286;DHT22;2665;53.112;7.358;2024-02-21T01:39:04;8.90;99.90
5286;DHT22;2665;53.112;7.358;2024-02-21T01:41:30;8.90;99.90
5286;DHT22;2665;53.112;7.358;2024-02-21T01:43:56;9.00;99.90
5286;DHT22;2665;53.112;7.358;2024-02-21T01:46:23;8.90;99.90
5286;DHT22;2665;53.112;7.358;2024-02-21T01:48:53;8.90;99.90
5286;DHT22;2665;53.112;7.358;2024-02-21T01:51:19;9.00;99.90
5286;DHT22;2665;53.112;7.358;2024-02-21T01:53:45;9.00;99.90
5286;DHT22;2665;53.112;7.358;2024-02-21T01:56:12;9.00;99.90
5286;DHT22;2665;53.112;7.358;2024-02-21T01:58:40;9.00;99.90
5286;DHT22;2665;53.112;7.358;2024-02-21T02:01:07;9.00;99.90
5286;DHT22;2665;53.112;7.358;2024-02-21T02:03:33;9.10;99.90
5286;DHT22;2665;53.112;7.358;2024-02-21T02:06:00;9.10;99.90
5286;DHT22;2665;53.112;7.358;2024-02-21T02:08:25;9.10;99.90
5286;DHT22;2665;53.112;7.358;2024-02-21T02:10:51;9.10;99.90
5286;DHT22;2665;53.112;7.358;2024-02-21T02:13:17;9.10;99.90
5286;DHT22;2665;53.112;7.358;2024-02-21T02:15:45;9.10;99.90
5286;DHT22;2665;53.112;7.358;2024-02-21T02:18:12;9.10;99.90
5286;DHT22;2665;53.112;7.358;2024-02-21T02:20:38;9.10;99.90
5286;DHT22;2665;53.112;7.358;2024-02-21T02:25:36;9.00;99.90
5286;DHT22;2665;53.112;7.358;2024-02-21T02:28:08;8.90;99.90
5286;DHT22;2665;53.112;7.358;2024-02-21T02:30:37;8.80;99.90
5286;DHT22;2665;53.112;7.358;2024-02-21T02:33:06;8.70;99.90
5286;DHT22;2665;53.112;7.358;2024-02-21T02:35:32;8.60;99.90
5286;DHT22;2665;53.112;7.358;2024-02-21T02:37:58;8.60;99.90
5286;DHT22;2665;53.112;7.358;2024-02-21T02:40:24;8.50;99.90
5286;DHT22;2665;53.112;7.358;2024-02-21T02:42:50;8.50;99.90
5286;DHT22;2665;53.112;7.358;2024-02-21T02:45:17;8.50;99.90
5286;DHT22;2665;53.112;7.358;2024-02-21T02:47:46;8.50;99.90
5286;DHT22;2665;53.112;7.358;2024-02-21T02:50:12;8.40;99.90
5286;DHT22;2665;53.112;7.358;2024-02-21T02:52:38;8.40;99.90
5286;DHT22;2665;53.112;7.358;2024-02-21T02:55:04;8.40;99.90
5286;DHT22;2665;53.112;7.358;2024-02-21T02:57:30;8.40;99.90
5286;DHT22;2665;53.112;7.358;2024-02-21T02:59:56;8.40;99.90
5286;DHT22;2665;53.112;7.358;2024-02-21T03:02:22;8.40;99.90
5286;DHT22;2665;53.112;7.358;2024-02-21T03:04:47;8.40;99.90
5286;DHT22;2665;53.112;7.358;2024-02-21T03:07:14;8.40;99.90
5286;DHT22;2665;53.112;7.358;2024-02-21T03:09:40;8.40;99.90
5286;DHT22;2665;53.112;7.358;2024-02-21T03:12:08;8.40;99.90
5286;DHT22;2665;53.112;7.358;2024-02-21T03:14:34;8.40;99.90
5286;DHT22;2665;53.112;7.358;2024-02-21T03:17:01;8.40;99.90
5286;DHT22;2665;53.112;7.358;2024-02-21T03:19:28;8.40;99.90
5286;DHT22;2665;53.112;7.358;2024-02-21T03:21:54;8.40;99.90
5286;DHT22;2665;53.112;7.358;2024-02-21T03:24:20;8.40;99.90
5286;DHT22;2665;53.112;7.358;2024-02-21T03:26:46;8.40;99.90
5286;DHT22;2665;53.112;7.358;2024-02-21T03:29:16;8.40;99.90
5286;DHT22;2665;53.112;7.358;2024-02-21T03:31:42;8.40;99.90
5286;DHT22;2665;53.112;7.358;2024-02-21T03:34:10;8.40;99.90
5286;DHT22;2665;53.112;7.358;2024-02-21T03:36:35;8.40;99.90
5286;DHT22;2665;53.112;7.358;2024-02-21T03:39:01;8.40;99.90
5286;DHT22;2665;53.112;7.358;2024-02-21T03:41:27;8.40;99.90
5286;DHT22;2665;53.112;7.358;2024-02-21T03:43:52;8.40;99.90
5286;DHT22;2665;53.112;7.358;2024-02-21T03:46:18;8.40;99.90
5286;DHT22;2665;53.112;7.358;2024-02-21T03:48:44;8.40;99.90
5286;DHT22;2665;53.112;7.358;2024-02-21T03:51:10;8.40;99.90
5286;DHT22;2665;53.112;7.358;2024-02-21T03:53:36;8.40;99.90
5286;DHT22;2665;53.112;7.358;2024-02-21T03:56:02;8.40;99.90
5286;DHT22;2665;53.112;7.358;2024-02-21T03:58:30;8.40;99.90
5286;DHT22;2665;53.112;7.358;2024-02-21T04:00:55;8.40;99.90
5286;DHT22;2665;53.112;7.358;2024-02-21T04:03:21;8.40;99.90
5286;DHT22;2665;53.112;7.358;2024-02-21T04:05:47;8.50;99.90
5286;DHT22;2665;53.112;7.358;2024-02-21T04:08:13;8.40;99.90
5286;DHT22;2665;53.112;7.358;2024-02-21T04:10:39;8.40;99.90
5286;DHT22;2665;53.112;7.358;2024-02-21T04:13:06;8.40;99.90
5286;DHT22;2665;53.112;7.358;2024-02-21T04:15:32;8.40;99.90
5286;DHT22;2665;53.112;7.358;2024-02-21T04:17:58;8.40;99.90
5286;DHT22;2665;53.112;7.358;2024-02-21T04:20:23;8.40;99.90
5286;DHT22;2665;53.112;7.358;2024-02-21T04:22:49;8.40;99.90
5286;DHT22;2665;53.112;7.358;2024-02-21T04:25:15;8.40;99.90
5286;DHT22;2665;53.112;7.358;2024-02-21T04:27:41;8.40;99.90
5286;DHT22;2665;53.112;7.358;2024-02-21T04:30:07;8.40;99.90
5286;DHT22;2665;53.112;7.358;2024-02-21T04:32:33;8.40;99.90
5286;DHT22;2665;53.112;7.358;2024-02-21T04:34:59;8.40;99.90
5286;DHT22;2665;53.112;7.358;2024-02-21T04:37:24;8.40;99.90
5286;DHT22;2665;53.112;7.358;2024-02-21T04:39:50;8.40;99.90
5286;DHT22;2665;53.112;7.358;2024-02-21T04:42:17;8.40;99.90
5286;DHT22;2665;53.112;7.358;2024-02-21T04:44:42;8.40;99.90
5286;DHT22;2665;53.112;7.358;2024-02-21T04:47:08;8.40;99.90
5286;DHT22;2665;53.112;7.358;2024-02-21T04:49:34;8.40;99.90
5286;DHT22;2665;53.112;7.358;2024-02-21T04:52:00;8.40;99.90
5286;DHT22;2665;53.112;7.358;2024-02-21T04:54:26;8.40;99.90
5286;DHT22;2665;53.112;7.358;2024-02-21T04:56:52;8.50;99.90
5286;DHT22;2665;53.112;7.358;2024-02-21T04:59:18;8.40;99.90
5286;DHT22;2665;53.112;7.358;2024-02-21T05:01:43;8.50;99.90
5286;DHT22;2665;53.112;7.358;2024-02-21T05:04:09;8.50;99.90
5286;DHT22;2665;53.112;7.358;2024-02-21T05:06:38;8.50;99.90
5286;DHT22;2665;53.112;7.358;2024-02-21T05:09:04;8.50;99.90
5286;DHT22;2665;53.112;7.358;2024-02-21T05:11:30;8.50;99.90
5286;DHT22;2665;53.112;7.358;2024-02-21T05:13:56;8.50;99.90
5286;DHT22;2665;53.112;7.358;2024-02-21T05:16:22;8.50;99.90
5286;DHT22;2665;53.112;7.358;2024-02-21T05:18:47;8.50;99.90
5286;DHT22;2665;53.112;7.358;2024-02-21T05:21:13;8.50;99.90
5286;DHT22;2665;53.112;7.358;2024-02-21T05:23:39;8.50;99.90
5286;DHT22;2665;53.112;7.358;2024-02-21T05:26:05;8.50;99.90
5286;DHT22;2665;53.112;7.358;2024-02-21T05:28:31;8.50;99.90
5286;DHT22;2665;53.112;7.358;2024-02-21T05:30:57;8.40;99.90
5286;DHT22;2665;53.112;7.358;2024-02-21T05:33:25;8.40;99.90
5286;DHT22;2665;53.112;7.358;2024-02-21T05:35:50;8.40;99.90
5286;DHT22;2665;53.112;7.358;2024-02-21T05:38:17;8.40;99.90
5286;DHT22;2665;53.112;7.358;2024-02-21T05:40:44;8.40;99.90
5286;DHT22;2665;53.112;7.358;2024-02-21T05:43:10;8.40;99.90
5286;DHT22;2665;53.112;7.358;2024-02-21T05:45:36;8.40;99.90
5286;DHT22;2665;53.112;7.358;2024-02-21T05:48:03;8.40;99.90
5286;DHT22;2665;53.112;7.358;2024-02-21T05:50:28;8.40;99.90
5286;DHT22;2665;53.112;7.358;2024-02-21T05:52:55;8.40;99.90
5286;DHT22;2665;53.112;7.358;2024-02-21T05:55:21;8.40;99.90
5286;DHT22;2665;53.112;7.358;2024-02-21T05:57:47;8.40;99.90
5286;DHT22;2665;53.112;7.358;2024-02-21T06:00:13;8.40;99.90
5286;DHT22;2665;53.112;7.358;2024-02-21T06:02:39;8.40;99.90
5286;DHT22;2665;53.112;7.358;2024-02-21T06:05:06;8.40;99.90
5286;DHT22;2665;53.112;7.358;2024-02-21T06:07:33;8.50;99.90
5286;DHT22;2665;53.112;7.358;2024-02-21T06:10:00;8.50;99.90
5286;DHT22;2665;53.112;7.358;2024-02-21T06:12:26;8.50;99.90
5286;DHT22;2665;53.112;7.358;2024-02-21T06:14:52;8.50;99.90
5286;DHT22;2665;53.112;7.358;2024-02-21T06:17:17;8.50;99.90
5286;DHT22;2665;53.112;7.358;2024-02-21T06:19:43;8.50;99.90
5286;DHT22;2665;53.112;7.358;2024-02-21T06:22:10;8.50;99.90
5286;DHT22;2665;53.112;7.358;2024-02-21T06:24:36;8.50;99.90
5286;DHT22;2665;53.112;7.358;2024-02-21T06:27:05;8.50;99.90
5286;DHT22;2665;53.112;7.358;2024-02-21T06:29:34;8.50;99.90
5286;DHT22;2665;53.112;7.358;2024-02-21T06:32:01;8.50;99.90
5286;DHT22;2665;53.112;7.358;2024-02-21T06:34:27;8.50;99.90
5286;DHT22;2665;53.112;7.358;2024-02-21T06:36:53;8.50;99.90
5286;DHT22;2665;53.112;7.358;2024-02-21T06:39:19;8.50;99.90
5286;DHT22;2665;53.112;7.358;2024-02-21T06:41:44;8.50;99.90
5286;DHT22;2665;53.112;7.358;2024-02-21T06:44:10;8.50;99.90
5286;DHT22;2665;53.112;7.358;2024-02-21T06:46:36;8.50;99.90
5286;DHT22;2665;53.112;7.358;2024-02-21T06:49:02;8.50;99.90
5286;DHT22;2665;53.112;7.358;2024-02-21T06:51:31;8.50;99.90
5286;DHT22;2665;53.112;7.358;2024-02-21T06:53:57;8.50;99.90
5286;DHT22;2665;53.112;7.358;2024-02-21T06:56:24;8.50;99.90
5286;DHT22;2665;53.112;7.358;2024-02-21T06:58:57;8.50;99.90
5286;DHT22;2665;53.112;7.358;2024-02-21T07:01:23;8.50;99.90
5286;DHT22;2665;53.112;7.358;2024-02-21T07:03:49;8.50;99.90
5286;DHT22;2665;53.112;7.358;2024-02-21T07:06:15;8.50;99.90
5286;DHT22;2665;53.112;7.358;2024-02-21T07:08:41;8.40;99.90
5286;DHT22;2665;53.112;7.358;2024-02-21T07:11:07;8.40;99.90
5286;DHT22;2665;53.112;7.358;2024-02-21T07:13:33;8.50;99.90
5286;DHT22;2665;53.112;7.358;2024-02-21T07:15:58;8.40;99.90
5286;DHT22;2665;53.112;7.358;2024-02-21T07:18:24;8.40;99.90
5286;DHT22;2665;53.112;7.358;2024-02-21T07:20:51;8.40;99.90
5286;DHT22;2665;53.112;7.358;2024-02-21T07:23:18;8.40;99.90
5286;DHT22;2665;53.112;7.358;2024-02-21T07:25:43;8.40;99.90
5286;DHT22;2665;53.112;7.358;2024-02-21T07:28:09;8.40;99.90
5286;DHT22;2665;53.112;7.358;2024-02-21T07:30:35;8.40;99.90
5286;DHT22;2665;53.112;7.358;2024-02-21T07:33:00;8.40;99.90
5286;DHT22;2665;53.112;7.358;2024-02-21T07:35:26;8.40;99.90
5286;DHT22;2665;53.112;7.358;2024-02-21T07:37:52;8.40;99.90
5286;DHT22;2665;53.112;7.358;2024-02-21T07:40:18;8.50;99.90
5286;DHT22;2665;53.112;7.358;2024-02-21T07:42:44;8.50;99.90
5286;DHT22;2665;53.112;7.358;2024-02-21T07:45:10;8.50;99.90
5286;DHT22;2665;53.112;7.358;2024-02-21T07:47:36;8.50;99.90
5286;DHT22;2665;53.112;7.358;2024-02-21T07:50:05;8.50;99.90
5286;DHT22;2665;53.112;7.358;2024-02-21T07:52:32;8.50;99.90
5286;DHT22;2665;53.112;7.358;2024-02-21T07:54:58;8.60;99.90
5286;DHT22;2665;53.112;7.358;2024-02-21T07:57:23;8.60;99.90
5286;DHT22;2665;53.112;7.358;2024-02-21T07:59:49;8.70;99.90
5286;DHT22;2665;53.112;7.358;2024-02-21T08:02:15;8.70;99.90
5286;DHT22;2665;53.112;7.358;2024-02-21T08:04:41;8.70;99.90
5286;DHT22;2665;53.112;7.358;2024-02-21T08:07:07;8.70;99.90
5286;DHT22;2665;53.112;7.358;2024-02-21T08:09:33;8.80;99.90
5286;DHT22;2665;53.112;7.358;2024-02-21T08:11:58;8.80;99.90
5286;DHT22;2665;53.112;7.358;2024-02-21T08:14:24;8.80;99.90
5286;DHT22;2665;53.112;7.358;2024-02-21T08:16:53;8.90;99.90
5286;DHT22;2665;53.112;7.358;2024-02-21T08:19:20;8.90;99.90
5286;DHT22;2665;53.112;7.358;2024-02-21T08:21:45;8.90;99.90
5286;DHT22;2665;53.112;7.358;2024-02-21T08:24:14;9.00;99.90
5286;DHT22;2665;53.112;7.358;2024-02-21T08:26:44;9.00;99.90
5286;DHT22;2665;53.112;7.358;2024-02-21T08:29:13;9.00;99.90
5286;DHT22;2665;53.112;7.358;2024-02-21T08:31:39;9.00;99.90
5286;DHT22;2665;53.112;7.358;2024-02-21T08:34:04;8.90;99.90
5286;DHT22;2665;53.112;7.358;2024-02-21T08:36:34;8.90;99.90
5286;DHT22;2665;53.112;7.358;2024-02-21T08:39:01;8.90;99.90
5286;DHT22;2665;53.112;7.358;2024-02-21T08:41:30;8.90;99.90
5286;DHT22;2665;53.112;7.358;2024-02-21T08:43:55;8.80;99.90
5286;DHT22;2665;53.112;7.358;2024-02-21T08:46:21;8.80;99.90
5286;DHT22;2665;53.112;7.358;2024-02-21T08:48:47;8.80;99.90
5286;DHT22;2665;53.112;7.358;2024-02-21T08:51:13;8.80;99.90
5286;DHT22;2665;53.112;7.358;2024-02-21T08:53:39;8.80;99.90
5286;DHT22;2665;53.112;7.358;2024-02-21T08:56:05;8.80;99.90
5286;DHT22;2665;53.112;7.358;2024-02-21T08:58:33;8.70;99.90
5286;DHT22;2665;53.112;7.358;2024-02-21T09:00:58;8.70;99.90
5286;DHT22;2665;53.112;7.358;2024-02-21T09:03:24;8.60;99.90
5286;DHT22;2665;53.112;7.358;2024-02-21T09:05:50;8.60;99.90
5286;DHT22;2665;53.112;7.358;2024-02-21T09:08:16;8.60;99.90
5286;DHT22;2665;53.112;7.358;2024-02-21T09:10:41;8.60;99.90
5286;DHT22;2665;53.112;7.358;2024-02-21T09:13:07;8.50;99.90
5286;DHT22;2665;53.112;7.358;2024-02-21T09:15:34;8.60;99.90
5286;DHT22;2665;53.112;7.358;2024-02-21T09:17:59;8.60;99.90
5286;DHT22;2665;53.112;7.358;2024-02-21T09:20:25;8.60;99.90
5286;DHT22;2665;53.112;7.358;2024-02-21T09:22:51;8.60;99.90
5286;DHT22;2665;53.112;7.358;2024-02-21T09:25:18;8.60;99.90
5286;DHT22;2665;53.112;7.358;2024-02-21T09:27:44;8.70;99.90
5286;DHT22;2665;53.112;7.358;2024-02-21T09:30:10;8.70;99.90
5286;DHT22;2665;53.112;7.358;2024-02-21T09:32:36;8.70;99.90
5286;DHT22;2665;53.112;7.358;2024-02-21T09:35:03;8.70;99.90
5286;DHT22;2665;53.112;7.358;2024-02-21T09:37:29;8.70;99.90
5286;DHT22;2665;53.112;7.358;2024-02-21T09:39:54;8.70;99.90
5286;DHT22;2665;53.112;7.358;2024-02-21T09:42:21;8.70;99.90
5286;DHT22;2665;53.112;7.358;2024-02-21T09:44:51;8.70;99.90
5286;DHT22;2665;53.112;7.358;2024-02-21T09:47:22;8.70;99.90
5286;DHT22;2665;53.112;7.358;2024-02-21T09:49:50;8.70;99.90
5286;DHT22;2665;53.112;7.358;2024-02-21T09:52:17;8.70;99.90
5286;DHT22;2665;53.112;7.358;2024-02-21T09:54:44;8.70;99.90
5286;DHT22;2665;53.112;7.358;2024-02-21T09:57:10;8.70;99.90
5286;DHT22;2665;53.112;7.358;2024-02-21T09:59:37;8.80;99.90
5286;DHT22;2665;53.112;7.358;2024-02-21T10:02:03;8.80;99.90
5286;DHT22;2665;53.112;7.358;2024-02-21T10:04:30;8.80;99.90
5286;DHT22;2665;53.112;7.358;2024-02-21T10:06:56;8.80;99.90
5286;DHT22;2665;53.112;7.358;2024-02-21T10:09:26;8.90;99.90
5286;DHT22;2665;53.112;7.358;2024-02-21T10:11:54;8.90;99.90
5286;DHT22;2665;53.112;7.358;2024-02-21T10:14:20;9.00;99.90
5286;DHT22;2665;53.112;7.358;2024-02-21T10:16:56;9.00;99.90
5286;DHT22;2665;53.112;7.358;2024-02-21T10:19:23;9.00;99.90
5286;DHT22;2665;53.112;7.358;2024-02-21T10:22:09;9.10;99.90
5286;DHT22;2665;53.112;7.358;2024-02-21T10:24:35;9.10;99.90
5286;DHT22;2665;53.112;7.358;2024-02-21T10:27:04;9.10;99.90
5286;DHT22;2665;53.112;7.358;2024-02-21T10:29:31;9.20;99.90
5286;DHT22;2665;53.112;7.358;2024-02-21T10:32:23;9.30;99.90
5286;DHT22;2665;53.112;7.358;2024-02-21T10:34:50;9.30;99.90
5286;DHT22;2665;53.112;7.358;2024-02-21T10:37:25;9.40;99.90
5286;DHT22;2665;53.112;7.358;2024-02-21T10:39:51;9.40;99.90
5286;DHT22;2665;53.112;7.358;2024-02-21T10:42:21;9.40;99.90
5286;DHT22;2665;53.112;7.358;2024-02-21T10:44:51;9.50;99.90
5286;DHT22;2665;53.112;7.358;2024-02-21T10:47:17;9.60;99.90
5286;DHT22;2665;53.112;7.358;2024-02-21T10:49:50;9.70;99.90
5286;DHT22;2665;53.112;7.358;2024-02-21T10:55:10;9.70;99.90
5286;DHT22;2665;53.112;7.358;2024-02-21T10:57:42;9.70;99.90
5286;DHT22;2665;53.112;7.358;2024-02-21T11:00:09;9.70;99.90
5286;DHT22;2665;53.112;7.358;2024-02-21T11:02:38;9.60;99.90
5286;DHT22;2665;53.112;7.358;2024-02-21T11:05:05;9.60;99.90
5286;DHT22;2665;53.112;7.358;2024-02-21T11:07:32;9.60;99.90
5286;DHT22;2665;53.112;7.358;2024-02-21T11:10:00;9.60;99.90
5286;DHT22;2665;53.112;7.358;2024-02-21T11:12:26;9.60;99.90
5286;DHT22;2665;53.112;7.358;2024-02-21T11:15:03;9.60;99.90
5286;DHT22;2665;53.112;7.358;2024-02-21T11:17:29;9.50;99.90
5286;DHT22;2665;53.112;7.358;2024-02-21T11:19:55;9.50;99.90
5286;DHT22;2665;53.112;7.358;2024-02-21T11:22:21;9.50;99.90
5286;DHT22;2665;53.112;7.358;2024-02-21T11:24:50;9.50;99.90
5286;DHT22;2665;53.112;7.358;2024-02-21T11:27:18;9.50;99.90
5286;DHT22;2665;53.112;7.358;2024-02-21T11:29:46;9.60;99.90
5286;DHT22;2665;53.112;7.358;2024-02-21T11:32:17;9.60;99.90
5286;DHT22;2665;53.112;7.358;2024-02-21T11:35:01;9.70;99.90
5286;DHT22;2665;53.112;7.358;2024-02-21T11:37:28;9.70;99.90
5286;DHT22;2665;53.112;7.358;2024-02-21T11:39:57;9.70;99.90
5286;DHT22;2665;53.112;7.358;2024-02-21T11:42:25;9.80;99.90
5286;DHT22;2665;53.112;7.358;2024-02-21T11:44:51;9.80;99.90
5286;DHT22;2665;53.112;7.358;2024-02-21T11:47:18;9.90;99.90
5286;DHT22;2665;53.112;7.358;2024-02-21T11:49:47;9.90;99.90
5286;DHT22;2665;53.112;7.358;2024-02-21T11:52:21;10.00;99.90
5286;DHT22;2665;53.112;7.358;2024-02-21T11:54:48;10.00;99.90
5286;DHT22;2665;53.112;7.358;2024-02-21T11:57:14;10.00;99.90
5286;DHT22;2665;53.112;7.358;2024-02-21T11:59:40;10.00;99.90
5286;DHT22;2665;53.112;7.358;2024-02-21T12:02:06;10.00;99.90
5286;DHT22;2665;53.112;7.358;2024-02-21T12:04:33;10.00;99.90
5286;DHT22;2665;53.112;7.358;2024-02-21T12:06:59;10.10;99.90
5286;DHT22;2665;53.112;7.358;2024-02-21T12:09:25;10.10;99.90
5286;DHT22;2665;53.112;7.358;2024-02-21T12:12:02;10.10;99.90
5286;DHT22;2665;53.112;7.358;2024-02-21T12:14:32;10.10;99.90
5286;DHT22;2665;53.112;7.358;2024-02-21T12:16:59;10.20;99.90
5286;DHT22;2665;53.112;7.358;2024-02-21T12:19:25;10.20;99.90
5286;DHT22;2665;53.112;7.358;2024-02-21T12:21:51;10.10;99.90
5286;DHT22;2665;53.112;7.358;2024-02-21T12:24:22;10.10;99.90
5286;DHT22;2665;53.112;7.358;2024-02-21T12:26:52;10.10;99.90
5286;DHT22;2665;53.112;7.358;2024-02-21T12:29:21;10.20;99.90
5286;DHT22;2665;53.112;7.358;2024-02-21T12:31:48;10.10;95.80
5286;DHT22;2665;53.112;7.358;2024-02-21T12:34:15;10.20;75.60
5286;DHT22;2665;53.112;7.358;2024-02-21T12:36:42;10.20;48.00
5286;DHT22;2665;53.112;7.358;2024-02-21T12:39:09;10.10;11.40
5286;DHT22;2665;53.112;7.358;2024-02-21T12:41:35;10.10;1.00
5286;DHT22;2665;53.112;7.358;2024-02-21T12:44:04;10.10;1.00
5286;DHT22;2665;53.112;7.358;2024-02-21T12:46:30;10.10;1.00
5286;DHT22;2665;53.112;7.358;2024-02-21T12:48:56;10.10;1.00
5286;DHT22;2665;53.112;7.358;2024-02-21T12:51:22;10.10;1.00
5286;DHT22;2665;53.112;7.358;2024-02-21T12:53:48;10.10;1.00
5286;DHT22;2665;53.112;7.358;2024-02-21T12:56:15;10.10;1.00
5286;DHT22;2665;53.112;7.358;2024-02-21T12:58:41;10.10;1.00
5286;DHT22;2665;53.112;7.358;2024-02-21T13:01:06;10.10;99.90
5286;DHT22;2665;53.112;7.358;2024-02-21T13:03:32;10.20;99.90
5286;DHT22;2665;53.112;7.358;2024-02-21T13:05:57;10.20;1.00
5286;DHT22;2665;53.112;7.358;2024-02-21T13:08:24;10.30;1.00
5286;DHT22;2665;53.112;7.358;2024-02-21T13:10:50;10.30;99.90
5286;DHT22;2665;53.112;7.358;2024-02-21T13:13:16;10.30;1.00
5286;DHT22;2665;53.112;7.358;2024-02-21T13:15:42;10.30;99.90
5286;DHT22;2665;53.112;7.358;2024-02-21T13:18:10;10.20;1.00
5286;DHT22;2665;53.112;7.358;2024-02-21T13:20:36;10.30;99.90
5286;DHT22;2665;53.112;7.358;2024-02-21T13:23:02;10.30;99.90
5286;DHT22;2665;53.112;7.358;2024-02-21T13:25:28;10.20;99.90
5286;DHT22;2665;53.112;7.358;2024-02-21T13:27:53;10.20;1.00
5286;DHT22;2665;53.112;7.358;2024-02-21T13:30:19;10.20;1.00
5286;DHT22;2665;53.112;7.358;2024-02-21T13:32:45;10.20;1.00
5286;DHT22;2665;53.112;7.358;2024-02-21T13:35:14;10.10;1.00
5286;DHT22;2665;53.112;7.358;2024-02-21T13:37:43;10.10;1.00
5286;DHT22;2665;53.112;7.358;2024-02-21T13:40:09;10.10;99.90
5286;DHT22;2665;53.112;7.358;2024-02-21T13:42:35;10.10;99.90
5286;DHT22;2665;53.112;7.358;2024-02-21T13:45:02;10.10;3.40
5286;DHT22;2665;53.112;7.358;2024-02-21T13:47:28;10.20;1.00
5286;DHT22;2665;53.112;7.358;2024-02-21T13:49:54;10.10;1.00
5286;DHT22;2665;53.112;7.358;2024-02-21T13:52:20;10.10;1.00
5286;DHT22;2665;53.112;7.358;2024-02-21T13:54:47;10.10;3.10
5286;DHT22;2665;53.112;7.358;2024-02-21T13:57:12;10.10;94.30
5286;DHT22;2665;53.112;7.358;2024-02-21T13:59:39;10.10;3.40
5286;DHT22;2665;53.112;7.358;2024-02-21T14:02:05;10.20;1.00
5286;DHT22;2665;53.112;7.358;2024-02-21T14:04:33;10.20;1.00
5286;DHT22;2665;53.112;7.358;2024-02-21T14:06:59;10.20;1.00
5286;DHT22;2665;53.112;7.358;2024-02-21T14:09:26;10.20;99.90
5286;DHT22;2665;53.112;7.358;2024-02-21T14:11:52;10.20;99.90
5286;DHT22;2665;53.112;7.358;2024-02-21T14:14:17;10.20;99.90
5286;DHT22;2665;53.112;7.358;2024-02-21T14:16:43;10.20;1.00
5286;DHT22;2665;53.112;7.358;2024-02-21T14:19:09;10.10;39.90
5286;DHT22;2665;53.112;7.358;2024-02-21T14:21:35;10.10;99.90
5286;DHT22;2665;53.112;7.358;2024-02-21T14:24:04;10.10;99.90
5286;DHT22;2665;53.112;7.358;2024-02-21T14:26:30;10.10;99.90
5286;DHT22;2665;53.112;7.358;2024-02-21T14:28:57;10.00;99.90
5286;DHT22;2665;53.112;7.358;2024-02-21T14:31:22;10.00;99.90
5286;DHT22;2665;53.112;7.358;2024-02-21T14:33:48;10.00;99.90
5286;DHT22;2665;53.112;7.358;2024-02-21T14:36:14;9.90;99.90
5286;DHT22;2665;53.112;7.358;2024-02-21T14:38:41;9.90;99.90
5286;DHT22;2665;53.112;7.358;2024-02-21T14:41:08;9.90;1.00
5286;DHT22;2665;53.112;7.358;2024-02-21T14:43:34;9.90;1.00
5286;DHT22;2665;53.112;7.358;2024-02-21T14:46:00;9.90;99.90
5286;DHT22;2665;53.112;7.358;2024-02-21T14:48:30;9.80;99.90
5286;DHT22;2665;53.112;7.358;2024-02-21T14:50:55;9.80;1.00
5286;DHT22;2665;53.112;7.358;2024-02-21T14:53:21;9.80;1.00
5286;DHT22;2665;53.112;7.358;2024-02-21T14:55:46;9.80;1.00
5286;DHT22;2665;53.112;7.358;2024-02-21T14:58:12;9.70;1.00
5286;DHT22;2665;53.112;7.358;2024-02-21T15:00:38;9.70;1.00
5286;DHT22;2665;53.112;7.358;2024-02-21T15:03:04;9.70;1.00
5286;DHT22;2665;53.112;7.358;2024-02-21T15:05:29;9.70;1.00
5286;DHT22;2665;53.112;7.358;2024-02-21T15:07:56;9.70;99.90
5286;DHT22;2665;53.112;7.358;2024-02-21T15:10:24;9.60;3.80
5286;DHT22;2665;53.112;7.358;2024-02-21T15:12:50;9.60;1.00
5286;DHT22;2665;53.112;7.358;2024-02-21T15:15:16;9.70;53.20
5286;DHT22;2665;53.112;7.358;2024-02-21T15:17:42;9.60;1.00
5286;DHT22;2665;53.112;7.358;2024-02-21T15:20:08;9.60;1.00
5286;DHT22;2665;53.112;7.358;2024-02-21T15:22:35;9.70;1.70
5286;DHT22;2665;53.112;7.358;2024-02-21T15:25:01;9.70;1.00
5286;DHT22;2665;53.112;7.358;2024-02-21T15:27:29;9.70;1.00
5286;DHT22;2665;53.112;7.358;2024-02-21T15:29:55;9.60;1.00
5286;DHT22;2665;53.112;7.358;2024-02-21T15:32:22;9.60;99.90
5286;DHT22;2665;53.112;7.358;2024-02-21T15:34:48;9.60;99.90
5286;DHT22;2665;53.112;7.358;2024-02-21T15:37:14;9.70;99.90
5286;DHT22;2665;53.112;7.358;2024-02-21T15:39:42;9.70;99.90
5286;DHT22;2665;53.112;7.358;2024-02-21T15:42:11;9.70;99.90
5286;DHT22;2665;53.112;7.358;2024-02-21T15:44:37;9.60;99.90
5286;DHT22;2665;53.112;7.358;2024-02-21T15:47:02;9.60;99.90
5286;DHT22;2665;53.112;7.358;2024-02-21T15:49:28;9.60;99.90
5286;DHT22;2665;53.112;7.358;2024-02-21T15:51:54;9.60;99.90
5286;DHT22;2665;53.112;7.358;2024-02-21T15:54:20;9.70;99.90
5286;DHT22;2665;53.112;7.358;2024-02-21T15:56:46;9.70;99.90
5286;DHT22;2665;53.112;7.358;2024-02-21T15:59:12;9.70;99.90
5286;DHT22;2665;53.112;7.358;2024-02-21T16:01:38;9.60;99.90
5286;DHT22;2665;53.112;7.358;2024-02-21T16:04:05;9.70;92.90
5286;DHT22;2665;53.112;7.358;2024-02-21T16:06:31;9.70;1.00
5286;DHT22;2665;53.112;7.358;2024-02-21T16:08:57;9.70;1.00
5286;DHT22;2665;53.112;7.358;2024-02-21T16:11:23;9.70;1.00
5286;DHT22;2665;53.112;7.358;2024-02-21T16:13:49;9.70;1.00
5286;DHT22;2665;53.112;7.358;2024-02-21T16:16:16;9.70;99.90
5286;DHT22;2665;53.112;7.358;2024-02-21T16:18:42;9.70;99.90